Time;durP1;ratioP1;P1;durP2;ratioP2;P2;SDS_P1;SDS_P2;PMS_P1;PMS_P2;Temp;Humidity;BMP_temperature;BMP_pressure;BME280_temperature;BME280_humidity;BME280_pressure;Samples;Min_cycle;Max_cycle;Signal;HPM_P1;HPM_P2
2023/02/06 00:00:32;;;;;;;16.00;9.40;;;;;;;5.11;58.78;101480.76;108208;1285;21980;-66
2023/02/06 00:02:59;;;;;;;15.40;10.00;;;;;;;5.08;58.40;101483.29;108156;1285;22000;-65
2023/02/06 00:05:24;;;;;;;17.70;10.50;;;;;;;5.04;58.22;101483.02;108167;1285;22003;-65
2023/02/06 00:07:50;;;;;;;14.70;9.50;;;;;;;5.02;58.58;101483.11;108248;1285;21992;-62
2023/02/06 00:10:16;;;;;;;19.00;10.80;;;;;;;4.92;58.15;101483.70;108263;1285;21983;-62
2023/02/06 00:12:43;;;;;;;17.60;10.80;;;;;;;4.85;58.16;101481.07;108173;1285;21992;-65
2023/02/06 00:15:09;;;;;;;16.20;9.40;;;;;;;4.79;58.43;101480.55;108182;1285;21986;-63
2023/02/06 00:17:35;;;;;;;17.10;10.80;;;;;;;4.72;58.28;101481.73;108260;1285;21996;-65
2023/02/06 00:20:02;;;;;;;16.90;10.50;;;;;;;4.67;58.23;101481.42;108314;1285;22000;-61
2023/02/06 00:22:28;;;;;;;16.20;10.30;;;;;;;4.61;58.33;101482.98;108297;1285;22029;-65
2023/02/06 00:24:54;;;;;;;17.30;11.00;;;;;;;4.56;58.62;101487.70;108227;1285;21999;-65
2023/02/06 00:27:20;;;;;;;15.60;9.70;;;;;;;4.53;58.62;101487.27;108090;1285;22474;-64
2023/02/06 00:29:46;;;;;;;17.30;10.50;;;;;;;4.49;58.36;101492.70;108121;1285;21989;-65
2023/02/06 00:32:11;;;;;;;20.10;11.80;;;;;;;4.44;58.32;101494.12;107541;1285;1003101;-65
2023/02/06 00:34:37;;;;;;;19.20;11.90;;;;;;;4.40;58.36;101495.20;108215;1285;22041;-65
2023/02/06 00:37:03;;;;;;;16.30;10.80;;;;;;;4.36;58.53;101497.35;108188;1285;21994;-64
2023/02/06 00:39:29;;;;;;;17.80;10.60;;;;;;;4.35;58.80;101498.35;108152;1285;22098;-61
2023/02/06 00:41:55;;;;;;;17.50;10.60;;;;;;;4.35;58.84;101500.77;108129;1285;21987;-63
2023/02/06 00:44:22;;;;;;;16.70;10.70;;;;;;;4.36;58.93;101496.83;108162;1285;22032;-64
2023/02/06 00:46:49;;;;;;;17.20;10.40;;;;;;;4.38;58.84;101497.05;108270;1285;21994;-65
2023/02/06 00:49:15;;;;;;;18.70;10.70;;;;;;;4.39;58.99;101495.70;108200;1285;23715;-63
2023/02/06 00:51:40;;;;;;;20.60;11.80;;;;;;;4.38;59.13;101495.67;108101;1285;22083;-65
2023/02/06 00:54:06;;;;;;;15.60;10.10;;;;;;;4.38;58.92;101496.73;108159;1285;21981;-65
2023/02/06 00:56:33;;;;;;;18.00;10.60;;;;;;;4.37;58.80;101491.13;108237;1285;22002;-61
2023/02/06 00:58:59;;;;;;;17.00;10.00;;;;;;;4.34;58.96;101490.69;108225;1285;22462;-65
2023/02/06 01:01:25;;;;;;;18.00;11.00;;;;;;;4.33;58.98;101485.95;108172;1286;21982;-61
2023/02/06 01:03:54;;;;;;;15.90;10.20;;;;;;;4.31;58.96;101487.13;107455;1285;1003176;-65
2023/02/06 01:06:20;;;;;;;19.10;11.70;;;;;;;4.33;58.95;101487.16;108154;1286;21984;-65
2023/02/06 01:08:46;;;;;;;19.90;11.50;;;;;;;4.31;58.66;101488.86;107555;1285;1002235;-61
2023/02/06 01:11:14;;;;;;;18.80;11.90;;;;;;;4.30;58.87;101489.02;107780;1283;1002205;-62
2023/02/06 01:13:40;;;;;;;19.20;11.00;;;;;;;4.29;58.89;101483.23;108267;1284;24319;-65
2023/02/06 01:16:10;;;;;;;16.70;9.30;;;;;;;4.26;58.38;101482.80;108292;1285;21985;-65
2023/02/06 01:18:37;;;;;;;16.40;9.60;;;;;;;4.25;58.60;101480.84;108229;1282;22034;-61
2023/02/06 01:21:09;;;;;;;16.80;10.80;;;;;;;4.24;58.78;101478.55;108195;1285;21988;-61
2023/02/06 01:23:36;;;;;;;17.60;11.00;;;;;;;4.22;58.43;101480.58;108169;1285;22007;-65
2023/02/06 01:26:09;;;;;;;15.80;9.30;;;;;;;4.18;58.29;101481.67;107375;1281;1002847;-63
2023/02/06 01:28:37;;;;;;;17.50;10.70;;;;;;;4.13;58.22;101482.20;108109;1285;21989;-66
2023/02/06 01:31:16;;;;;;;15.70;9.00;;;;;;;4.05;58.08;101482.98;108138;1284;22038;-63
2023/02/06 01:33:43;;;;;;;17.50;9.50;;;;;;;3.98;58.22;101482.95;108048;1285;22453;-65
2023/02/06 01:36:08;;;;;;;16.80;9.10;;;;;;;4.00;58.34;101487.36;108095;1285;21990;-63
2023/02/06 01:38:34;;;;;;;14.90;9.10;;;;;;;3.98;58.21;101486.77;107414;1285;1002711;-65
2023/02/06 01:41:01;;;;;;;18.80;11.30;;;;;;;3.93;58.11;101488.70;107379;1285;1002410;-63
2023/02/06 01:43:31;;;;;;;16.60;9.40;;;;;;;3.89;57.90;101489.25;107393;1285;1002272;-64
2023/02/06 01:45:58;;;;;;;17.70;10.20;;;;;;;3.86;57.83;101489.87;108146;1285;23050;-65
2023/02/06 01:48:45;;;;;;;18.20;9.80;;;;;;;3.83;57.92;101486.81;108176;1285;21994;-61
2023/02/06 01:51:20;;;;;;;19.00;10.80;;;;;;;3.81;58.13;101490.92;108084;1283;21991;-65
2023/02/06 01:53:53;;;;;;;16.20;9.50;;;;;;;3.82;58.24;101488.85;108107;1285;21989;-61
2023/02/06 01:56:19;;;;;;;19.40;10.30;;;;;;;3.78;57.96;101489.27;108185;1285;23052;-62
2023/02/06 01:58:50;;;;;;;17.30;9.70;;;;;;;3.77;57.91;101495.61;108172;1285;21995;-65
2023/02/06 02:01:16;;;;;;;15.80;9.50;;;;;;;3.77;58.05;101497.52;107340;1285;1002970;-65
2023/02/06 02:03:43;;;;;;;17.10;10.70;;;;;;;3.78;58.14;101499.46;108095;1286;21997;-64
2023/02/06 02:06:11;;;;;;;16.90;10.00;;;;;;;3.78;58.10;101502.42;108120;1286;22002;-66
2023/02/06 02:08:39;;;;;;;15.90;9.30;;;;;;;3.79;58.06;101504.39;108199;1285;21992;-63
2023/02/06 02:11:05;;;;;;;17.00;9.90;;;;;;;3.79;58.16;101506.61;108127;1285;24176;-62
2023/02/06 02:13:33;;;;;;;15.20;9.30;;;;;;;3.79;58.17;101508.20;108099;1285;22005;-61
2023/02/06 02:16:14;;;;;;;17.30;10.00;;;;;;;3.84;58.23;101505.77;108096;1285;21989;-66
2023/02/06 02:19:06;;;;;;;17.30;9.90;;;;;;;3.85;57.88;101505.10;108070;1285;22007;-65
2023/02/06 02:22:15;;;;;;;16.80;9.50;;;;;;;3.82;57.71;101504.33;108191;1285;22005;-62
2023/02/06 02:24:46;;;;;;;17.30;9.40;;;;;;;3.78;57.45;101505.89;108078;1286;21989;-62
2023/02/06 02:27:29;;;;;;;14.20;8.30;;;;;;;3.75;57.41;101507.53;108151;1286;21989;-62
2023/02/06 02:30:28;;;;;;;16.70;9.10;;;;;;;3.73;57.54;101510.28;107535;1285;1002563;-65
2023/02/06 02:33:00;;;;;;;18.30;8.90;;;;;;;3.70;57.05;101510.52;108154;1285;21995;-65
2023/02/06 02:35:27;;;;;;;17.50;9.10;;;;;;;3.69;57.32;101510.83;107530;1285;1003178;-65
2023/02/06 02:38:14;;;;;;;17.00;10.00;;;;;;;3.66;57.05;101511.59;108187;1285;21979;-65
2023/02/06 02:41:09;;;;;;;19.30;11.00;;;;;;;3.63;56.95;101514.09;108248;1284;21983;-62
2023/02/06 02:43:49;;;;;;;15.70;9.20;;;;;;;3.61;57.15;101519.21;107429;1286;1003183;-62
2023/02/06 02:46:20;;;;;;;16.50;9.80;;;;;;;3.59;57.16;101521.21;108263;1285;21978;-65
2023/02/06 02:48:48;;;;;;;17.30;9.80;;;;;;;3.56;57.29;101519.05;108269;1285;21962;-62
2023/02/06 02:51:13;;;;;;;12.60;8.20;;;;;;;3.56;57.30;101524.78;108298;1285;21990;-66
2023/02/06 02:53:39;;;;;;;17.20;9.80;;;;;;;3.57;57.17;101524.80;108126;1285;21988;-65
2023/02/06 02:56:18;;;;;;;17.20;8.60;;;;;;;3.56;57.14;101523.75;108181;1285;22000;-63
2023/02/06 02:58:45;;;;;;;12.50;7.40;;;;;;;3.54;57.12;101525.75;108211;1284;21986;-62
2023/02/06 03:01:15;;;;;;;16.30;9.60;;;;;;;3.52;57.23;101526.91;108204;1286;21980;-65
2023/02/06 03:03:43;;;;;;;15.90;9.30;;;;;;;3.51;57.47;101528.98;108217;1286;21997;-62
2023/02/06 03:06:27;;;;;;;15.80;9.30;;;;;;;3.54;57.49;101533.21;108209;1285;22064;-61
2023/02/06 03:09:27;;;;;;;15.30;8.70;;;;;;;3.56;57.24;101532.79;108183;1285;21998;-62
2023/02/06 03:12:05;;;;;;;;;;;;;;;3.56;57.07;101530.01;108193;1285;21980;-61
2023/02/06 03:14:41;;;;;;;17.00;8.90;;;;;;;3.55;57.24;101530.31;107442;1285;1003055;-62
2023/02/06 03:17:13;;;;;;;18.60;9.60;;;;;;;3.53;57.12;101531.81;108265;1285;21988;-64
2023/02/06 03:19:42;;;;;;;16.10;9.70;;;;;;;3.52;56.95;101528.13;107400;1286;1002538;-65
2023/02/06 03:22:08;;;;;;;19.30;9.60;;;;;;;3.48;56.97;101526.77;107349;1286;1004125;-65
2023/02/06 03:24:36;;;;;;;15.40;9.50;;;;;;;3.46;57.33;101526.70;108056;1285;21992;-65
2023/02/06 03:27:03;;;;;;;18.20;9.40;;;;;;;3.46;57.38;101523.21;108104;1285;21989;-65
2023/02/06 03:29:30;;;;;;;17.70;9.70;;;;;;;3.45;57.34;101518.16;108218;1285;21987;-65
2023/02/06 03:31:59;;;;;;;15.90;9.00;;;;;;;3.44;57.28;101515.33;108283;1285;21987;-65
2023/02/06 03:34:41;;;;;;;19.10;9.70;;;;;;;3.43;57.42;101520.86;108207;1285;21991;-64
2023/02/06 03:37:07;;;;;;;17.50;9.60;;;;;;;3.40;57.32;101522.16;107497;1286;1002551;-64
2023/02/06 03:39:33;;;;;;;18.40;10.00;;;;;;;3.39;57.41;101519.84;108291;1285;21991;-61
2023/02/06 03:41:59;;;;;;;21.10;10.30;;;;;;;3.39;57.47;101520.37;108154;1285;22106;-66
2023/02/06 03:44:32;;;;;;;16.80;10.00;;;;;;;3.40;57.57;101516.23;108109;1285;21995;-61
2023/02/06 03:46:58;;;;;;;18.20;9.60;;;;;;;3.44;57.99;101516.20;107390;1286;1003619;-62
2023/02/06 03:49:24;;;;;;;15.30;8.70;;;;;;;3.48;58.15;101517.92;107287;1285;1003583;-65
2023/02/06 03:52:09;;;;;;;18.80;10.10;;;;;;;3.52;58.23;101516.33;108104;1285;22007;-66
2023/02/06 03:54:37;;;;;;;18.70;10.10;;;;;;;3.54;57.96;101515.17;108097;1285;21968;-61
2023/02/06 03:57:04;;;;;;;16.60;9.70;;;;;;;3.52;57.58;101519.77;108165;1285;22013;-63
2023/02/06 03:59:31;;;;;;;19.90;10.10;;;;;;;3.47;57.62;101525.01;108090;1285;21992;-65
2023/02/06 04:01:58;;;;;;;19.10;10.80;;;;;;;3.46;57.62;101533.98;108163;1285;21983;-62
2023/02/06 04:04:27;;;;;;;15.30;9.70;;;;;;;3.46;57.59;101539.16;108277;1285;21989;-66
2023/02/06 04:06:57;;;;;;;18.60;10.60;;;;;;;3.46;58.02;101543.70;108308;1285;21983;-61
2023/02/06 04:09:24;;;;;;;;;;;;;;;3.49;58.13;101544.69;107460;1285;1003006;-61
2023/02/06 04:11:49;;;;;;;17.70;9.90;;;;;;;3.52;58.33;101546.01;107299;1285;1002713;-61
2023/02/06 04:14:16;;;;;;;20.40;10.60;;;;;;;3.54;58.41;101549.52;108052;1285;21991;-65
2023/02/06 04:16:41;;;;;;;22.40;10.30;;;;;;;3.59;58.69;101551.27;108083;1281;21988;-63
2023/02/06 04:19:07;;;;;;;16.70;9.40;;;;;;;3.67;58.69;101550.52;108032;1285;22768;-61
2023/02/06 04:21:33;;;;;;;22.90;10.00;;;;;;;3.77;58.72;101549.62;108312;1285;23095;-65
2023/02/06 04:23:59;;;;;;;17.20;10.00;;;;;;;3.85;58.92;101556.84;108096;1285;22454;-65
2023/02/06 04:26:25;;;;;;;17.80;9.80;;;;;;;3.91;58.65;101557.57;108059;1285;22024;-62
2023/02/06 04:28:51;;;;;;;19.10;10.80;;;;;;;3.97;58.65;101563.16;107295;1285;1002413;-66
2023/02/06 04:31:16;;;;;;;17.50;10.10;;;;;;;4.00;58.49;101563.61;107399;1285;1002632;-63
2023/02/06 04:33:42;;;;;;;19.30;9.80;;;;;;;4.03;58.58;101561.96;107281;1285;1003195;-65
2023/02/06 04:36:08;;;;;;;18.60;9.70;;;;;;;4.02;58.64;101567.14;107406;1285;1003185;-61
2023/02/06 04:38:35;;;;;;;18.30;10.50;;;;;;;4.06;58.42;101572.63;108094;1285;22450;-60
2023/02/06 04:41:04;;;;;;;17.40;10.00;;;;;;;4.10;58.00;101571.38;108089;1285;21973;-65
2023/02/06 04:43:31;;;;;;;17.90;10.10;;;;;;;4.11;57.99;101578.73;108183;1285;21985;-65
2023/02/06 04:45:58;;;;;;;16.90;9.70;;;;;;;4.04;57.99;101581.10;108117;1283;21996;-65
2023/02/06 04:48:24;;;;;;;20.80;11.10;;;;;;;4.08;58.25;101587.13;108082;1285;21986;-61
2023/02/06 04:50:50;;;;;;;20.10;11.10;;;;;;;4.09;58.50;101587.19;108051;1279;21987;-65
2023/02/06 04:53:16;;;;;;;21.90;11.40;;;;;;;4.07;58.33;101588.15;108074;1285;21989;-61
2023/02/06 04:55:42;;;;;;;20.50;10.10;;;;;;;4.06;58.04;101581.83;108281;1285;21989;-61
2023/02/06 04:58:10;;;;;;;19.60;10.90;;;;;;;4.07;58.11;101578.07;108108;1285;21996;-62
2023/02/06 05:00:35;;;;;;;19.20;10.30;;;;;;;4.07;57.94;101579.46;108186;1285;21986;-67
2023/02/06 05:03:01;;;;;;;19.40;10.80;;;;;;;4.09;58.04;101584.03;108039;1285;21996;-62
2023/02/06 05:05:27;;;;;;;16.00;9.90;;;;;;;4.07;58.06;101589.04;108034;1284;21982;-66
2023/02/06 05:07:53;;;;;;;19.20;10.70;;;;;;;4.09;58.23;101591.15;108066;1284;22000;-63
2023/02/06 05:10:18;;;;;;;22.90;12.20;;;;;;;4.11;58.41;101596.46;108048;1285;22062;-62
2023/02/06 05:12:45;;;;;;;25.40;12.50;;;;;;;4.12;58.21;101598.20;108044;1285;21998;-62
2023/02/06 05:15:12;;;;;;;22.10;12.70;;;;;;;4.11;58.11;101601.30;108081;1283;22454;-66
2023/02/06 05:17:37;;;;;;;26.80;13.10;;;;;;;4.09;58.12;101597.91;107473;1285;1002569;-63
2023/02/06 05:20:04;;;;;;;25.80;13.90;;;;;;;4.07;58.65;101596.13;108188;1285;22024;-65
2023/02/06 05:22:31;;;;;;;24.80;13.10;;;;;;;4.15;59.12;101596.75;108171;1284;21992;-64
2023/02/06 05:24:56;;;;;;;31.30;13.70;;;;;;;4.25;59.05;101600.21;108066;1285;22009;-66
2023/02/06 05:27:23;;;;;;;27.50;13.50;;;;;;;4.26;58.76;101597.48;108186;1285;22028;-66
2023/02/06 05:29:49;;;;;;;24.30;12.80;;;;;;;4.27;58.57;101607.25;108234;1285;21989;-64
2023/02/06 05:32:17;;;;;;;24.40;13.10;;;;;;;4.25;58.45;101607.17;108204;1285;21999;-63
2023/02/06 05:34:42;;;;;;;24.90;12.20;;;;;;;4.26;58.73;101608.41;108244;1285;21997;-67
2023/02/06 05:37:08;;;;;;;24.60;14.20;;;;;;;4.25;58.86;101608.20;108234;1285;21986;-63
2023/02/06 05:39:34;;;;;;;26.00;13.20;;;;;;;4.24;59.24;101610.23;108048;1285;21997;-67
2023/02/06 05:41:59;;;;;;;28.70;14.10;;;;;;;4.24;59.41;101612.86;108051;1285;21989;-67
2023/02/06 05:44:25;;;;;;;25.60;14.00;;;;;;;4.28;59.34;101613.69;107371;1285;1002448;-66
2023/02/06 05:46:51;;;;;;;25.00;12.80;;;;;;;4.27;58.59;101610.52;108221;1284;22066;-66
2023/02/06 05:49:17;;;;;;;25.20;13.50;;;;;;;4.23;57.98;101607.79;108143;1285;21997;-66
2023/02/06 05:51:43;;;;;;;22.20;13.00;;;;;;;4.31;57.30;101612.04;108184;1285;21984;-62
2023/02/06 05:54:09;;;;;;;22.10;12.70;;;;;;;4.36;56.73;101615.16;107434;1285;1002221;-62
2023/02/06 05:56:34;;;;;;;26.10;14.40;;;;;;;4.33;56.56;101618.04;107287;1285;1003055;-67
2023/02/06 05:59:00;;;;;;;23.30;13.10;;;;;;;4.29;56.38;101616.66;107266;1285;1002702;-62
2023/02/06 06:01:28;;;;;;;23.80;12.80;;;;;;;4.23;56.44;101619.76;108044;1285;21982;-62
2023/02/06 06:03:54;;;;;;;25.10;13.80;;;;;;;4.20;56.61;101619.52;107296;1285;1002559;-62
2023/02/06 06:06:19;;;;;;;26.80;13.80;;;;;;;4.18;56.73;101619.45;108050;1285;22238;-62
2023/02/06 06:08:46;;;;;;;24.20;13.20;;;;;;;4.15;56.46;101624.05;108054;1285;22006;-61
2023/02/06 06:11:12;;;;;;;24.20;13.70;;;;;;;4.12;56.45;101627.08;108053;1285;21990;-61
2023/02/06 06:13:38;;;;;;;25.10;13.60;;;;;;;4.04;56.98;101632.36;108121;1285;21991;-61
2023/02/06 06:16:04;;;;;;;24.80;14.40;;;;;;;3.92;57.73;101636.27;108014;1285;21992;-63
2023/02/06 06:18:30;;;;;;;25.10;12.70;;;;;;;4.02;57.62;101639.92;108064;1285;22255;-62
2023/02/06 06:20:56;;;;;;;22.30;12.50;;;;;;;4.15;57.52;101642.09;107429;1285;1002985;-62
2023/02/06 06:23:22;;;;;;;28.50;15.20;;;;;;;4.32;57.50;101647.53;108011;1285;21999;-62
2023/02/06 06:25:48;;;;;;;33.10;17.50;;;;;;;4.53;57.02;101648.58;108064;1285;21991;-62
2023/02/06 06:28:14;;;;;;;26.30;13.90;;;;;;;4.61;56.81;101644.16;108050;1284;22261;-62
2023/02/06 06:30:41;;;;;;;29.10;15.20;;;;;;;4.63;56.92;101646.13;108061;1285;21990;-62
2023/02/06 06:33:07;;;;;;;23.40;12.90;;;;;;;4.57;57.29;101645.06;108226;1284;21991;-62
2023/02/06 06:35:33;;;;;;;30.60;14.30;;;;;;;4.41;57.80;101644.71;108058;1285;21990;-66
2023/02/06 06:37:59;;;;;;;25.50;13.60;;;;;;;4.23;58.71;101646.02;108188;1285;21992;-63
2023/02/06 06:40:24;;;;;;;26.00;13.30;;;;;;;4.22;59.28;101647.05;108284;1285;21991;-63
2023/02/06 06:42:50;;;;;;;24.70;13.50;;;;;;;4.25;59.08;101650.23;108255;1285;22024;-66
2023/02/06 06:45:17;;;;;;;27.00;13.40;;;;;;;4.43;58.80;101654.33;108207;1285;21992;-63
2023/02/06 06:47:43;;;;;;;28.70;15.10;;;;;;;4.44;58.82;101656.64;108121;1285;21993;-62
2023/02/06 06:50:09;;;;;;;24.10;13.00;;;;;;;4.41;59.07;101654.45;108037;1285;21983;-62
2023/02/06 06:52:35;;;;;;;23.10;13.00;;;;;;;4.44;59.13;101657.33;108027;1285;22024;-62
2023/02/06 06:55:01;;;;;;;25.50;13.70;;;;;;;4.43;58.96;101659.92;108223;1286;22058;-63
2023/02/06 06:57:30;;;;;;;21.70;12.30;;;;;;;4.47;58.74;101662.09;108153;1286;21992;-66
2023/02/06 06:59:56;;;;;;;22.20;13.30;;;;;;;4.53;58.97;101664.92;108124;1285;21992;-62
2023/02/06 07:02:21;;;;;;;24.00;12.80;;;;;;;4.55;58.87;101665.67;108128;1285;21985;-66
2023/02/06 07:04:47;;;;;;;23.10;12.90;;;;;;;4.51;58.79;101673.02;108046;1285;21995;-67
2023/02/06 07:07:13;;;;;;;21.60;12.40;;;;;;;4.45;58.88;101673.34;108177;1285;22449;-65
2023/02/06 07:09:38;;;;;;;22.10;12.60;;;;;;;4.45;58.84;101673.66;108135;1285;22456;-63
2023/02/06 07:12:06;;;;;;;21.30;10.80;;;;;;;4.46;59.13;101675.30;108083;1281;23082;-63
2023/02/06 07:14:31;;;;;;;23.10;13.10;;;;;;;4.47;58.95;101673.58;108341;1285;22010;-62
2023/02/06 07:16:58;;;;;;;23.40;13.10;;;;;;;4.51;58.86;101671.96;108203;1285;22040;-67
2023/02/06 07:19:24;;;;;;;25.80;12.10;;;;;;;4.51;58.96;101672.67;108183;1285;21999;-62
2023/02/06 07:21:50;;;;;;;25.20;13.10;;;;;;;4.57;59.28;101671.66;107279;1285;1002858;-67
2023/02/06 07:24:16;;;;;;;23.40;12.50;;;;;;;4.72;59.35;101673.38;107353;1285;1002612;-63
2023/02/06 07:26:42;;;;;;;20.40;12.40;;;;;;;4.85;58.61;101678.64;107325;1285;1002875;-67
2023/02/06 07:29:08;;;;;;;21.90;11.40;;;;;;;4.72;58.84;101680.14;108074;1285;23835;-63
2023/02/06 07:31:33;;;;;;;18.80;11.00;;;;;;;4.75;58.88;101677.80;107316;1285;1002988;-67
2023/02/06 07:34:01;;;;;;;20.00;11.60;;;;;;;4.79;58.79;101679.67;107302;1285;1002707;-67
2023/02/06 07:36:26;;;;;;;21.00;11.50;;;;;;;4.85;59.03;101683.19;108060;1285;21997;-68
2023/02/06 07:38:52;;;;;;;18.60;10.70;;;;;;;4.88;58.40;101682.04;108054;1285;21991;-65
2023/02/06 07:41:17;;;;;;;19.80;10.60;;;;;;;4.90;58.10;101677.05;108213;1285;21988;-65
2023/02/06 07:43:47;;;;;;;19.00;10.50;;;;;;;4.91;57.90;101681.27;108085;1285;21993;-67
2023/02/06 07:46:12;;;;;;;19.90;10.90;;;;;;;4.94;57.67;101680.16;107404;1285;1002738;-63
2023/02/06 07:48:38;;;;;;;19.00;10.40;;;;;;;5.01;57.93;101679.14;108130;1285;22146;-63
2023/02/06 07:51:06;;;;;;;20.50;9.90;;;;;;;5.03;57.53;101679.05;108156;1286;21961;-68
2023/02/06 07:53:33;;;;;;;17.10;9.70;;;;;;;5.07;57.45;101682.13;108111;1286;22024;-63
2023/02/06 07:55:59;;;;;;;17.50;10.90;;;;;;;5.08;57.02;101681.27;108085;1286;21989;-68
2023/02/06 07:58:25;;;;;;;22.40;9.80;;;;;;;5.12;56.83;101681.38;108082;1285;22037;-63
2023/02/06 08:00:53;;;;;;;16.60;8.70;;;;;;;5.22;57.07;101685.18;108134;1281;22003;-64
2023/02/06 08:03:19;;;;;;;18.00;9.50;;;;;;;5.29;56.44;101683.31;108178;1285;22002;-68
2023/02/06 08:05:47;;;;;;;15.40;9.00;;;;;;;5.38;56.26;101684.10;107413;1285;1002619;-63
2023/02/06 08:08:13;;;;;;;13.60;8.20;;;;;;;5.47;56.13;101680.19;108107;1285;22077;-63
2023/02/06 08:10:39;;;;;;;16.50;8.30;;;;;;;5.49;54.82;101677.81;108099;1285;21995;-67
2023/02/06 08:13:24;;;;;;;13.30;7.50;;;;;;;5.54;55.37;101676.90;107535;1285;1002880;-66
2023/02/06 08:15:50;;;;;;;13.60;8.00;;;;;;;5.67;55.04;101675.36;108274;1285;21994;-67
2023/02/06 08:18:16;;;;;;;14.60;8.00;;;;;;;5.89;54.81;101669.70;108241;1285;21987;-66
2023/02/06 08:20:42;;;;;;;16.20;7.70;;;;;;;6.10;55.34;101666.63;108213;1285;21989;-61
2023/02/06 08:23:07;;;;;;;14.90;8.20;;;;;;;6.25;55.51;101665.48;108132;1285;22024;-62
2023/02/06 08:25:33;;;;;;;15.70;8.00;;;;;;;6.55;54.27;101660.80;108103;1285;21993;-62
2023/02/06 08:27:59;;;;;;;11.00;6.70;;;;;;;6.67;54.26;101660.08;108123;1285;22088;-67
2023/02/06 08:30:25;;;;;;;14.50;6.90;;;;;;;6.69;53.62;101663.08;108027;1285;21984;-67
2023/02/06 08:32:51;;;;;;;12.20;6.90;;;;;;;6.65;52.78;101660.02;108052;1285;21986;-61
2023/02/06 08:35:17;;;;;;;11.40;6.30;;;;;;;6.55;52.45;101660.48;108213;1285;22042;-69
2023/02/06 08:37:43;;;;;;;12.40;6.50;;;;;;;6.57;52.96;101651.81;108142;1285;22054;-69
2023/02/06 08:40:09;;;;;;;12.00;7.50;;;;;;;6.62;52.50;101650.52;108185;1285;22002;-62
2023/02/06 08:42:35;;;;;;;14.50;8.10;;;;;;;6.66;52.64;101659.16;108285;1285;22011;-71
2023/02/06 08:45:02;;;;;;;12.60;7.60;;;;;;;6.77;53.21;101654.38;108142;1284;21992;-69
2023/02/06 08:47:28;;;;;;;12.50;6.60;;;;;;;6.97;53.20;101657.10;108123;1274;22000;-61
2023/02/06 08:49:54;;;;;;;11.80;6.70;;;;;;;7.11;52.66;101654.96;108033;1285;21984;-70
2023/02/06 08:52:21;;;;;;;10.30;6.50;;;;;;;7.01;52.16;101655.27;108063;1285;23073;-70
2023/02/06 08:54:49;;;;;;;12.90;7.40;;;;;;;6.90;51.99;101654.67;108101;1285;21994;-69
2023/02/06 08:57:15;;;;;;;12.40;7.20;;;;;;;6.87;52.06;101658.10;108105;1285;22003;-69
2023/02/06 08:59:41;;;;;;;13.10;7.10;;;;;;;6.93;53.68;101656.14;108035;1285;21994;-61
2023/02/06 09:02:09;;;;;;;10.70;6.70;;;;;;;6.96;52.23;101656.23;108066;1285;22021;-69
2023/02/06 09:04:36;;;;;;;11.20;6.70;;;;;;;7.00;51.76;101662.60;107287;1285;1002593;-69
2023/02/06 09:07:02;;;;;;;11.70;6.50;;;;;;;6.97;50.95;101666.36;108058;1285;22003;-61
2023/02/06 09:09:28;;;;;;;11.10;6.30;;;;;;;6.91;51.37;101659.24;108131;1285;21989;-69
2023/02/06 09:11:56;;;;;;;11.00;6.50;;;;;;;6.95;52.45;101659.67;108274;1285;21998;-70
2023/02/06 09:14:22;;;;;;;11.70;6.70;;;;;;;7.11;53.82;101658.14;108235;1285;21978;-70
2023/02/06 09:16:47;;;;;;;10.60;6.10;;;;;;;7.41;54.47;101659.81;108158;1285;22003;-62
2023/02/06 09:19:13;;;;;;;10.80;6.30;;;;;;;7.68;53.95;101653.56;108145;1285;21985;-69
2023/02/06 09:21:39;;;;;;;19.80;6.10;;;;;;;7.83;53.09;101652.09;108292;1285;22008;-72
2023/02/06 09:24:06;;;;;;;9.30;5.50;;;;;;;7.99;52.63;101649.61;108199;1285;23729;-63
2023/02/06 09:26:37;;;;;;;11.20;6.10;;;;;;;8.13;52.24;101647.26;108154;1285;21996;-64
2023/02/06 09:29:06;;;;;;;12.20;6.50;;;;;;;8.33;53.23;101644.09;108127;1285;21992;-63
2023/02/06 09:31:33;;;;;;;11.40;7.40;;;;;;;8.39;51.13;101649.45;108084;1285;22049;-68
2023/02/06 09:33:59;;;;;;;13.60;7.90;;;;;;;8.40;49.29;101643.34;107421;1285;1002682;-68
2023/02/06 09:36:26;;;;;;;11.70;7.20;;;;;;;8.27;48.73;101638.39;108111;1285;22005;-65
2023/02/06 09:38:52;;;;;;;11.20;7.50;;;;;;;8.15;49.21;101645.19;108161;1285;21990;-64
2023/02/06 09:41:21;;;;;;;16.10;8.10;;;;;;;8.14;50.16;101647.96;108147;1280;21991;-63
2023/02/06 09:43:53;;;;;;;11.70;7.00;;;;;;;8.25;50.98;101640.98;108123;1282;21983;-62
2023/02/06 09:46:22;;;;;;;14.90;8.20;;;;;;;8.21;50.87;101639.33;108120;1285;22862;-68
2023/02/06 09:48:48;;;;;;;14.10;7.60;;;;;;;8.18;50.56;101634.22;108124;1285;21994;-63
2023/02/06 09:51:33;;;;;;;14.70;8.70;;;;;;;8.13;49.76;101631.34;108147;1284;22003;-68
2023/02/06 09:54:52;;;;;;;15.50;7.80;;;;;;;7.98;48.42;101636.13;108153;1286;21989;-68
2023/02/06 09:57:30;;;;;;;12.60;6.90;;;;;;;7.95;49.61;101629.27;108074;1286;191211;-68
2023/02/06 10:00:21;;;;;;;10.00;6.50;;;;;;;7.96;49.35;101637.49;108179;1285;21988;-64
2023/02/06 10:02:51;;;;;;;11.90;6.30;;;;;;;8.12;49.83;101635.67;108090;1285;21998;-64
2023/02/06 10:05:20;;;;;;;9.50;5.80;;;;;;;8.29;50.16;101627.08;108108;1285;21992;-64
2023/02/06 10:08:09;;;;;;;9.80;5.80;;;;;;;8.42;49.70;101629.56;108141;1285;21997;-67
2023/02/06 10:10:44;;;;;;;14.50;7.60;;;;;;;8.52;49.61;101631.48;108105;1285;21989;-64
2023/02/06 10:13:23;;;;;;;11.30;7.00;;;;;;;8.52;48.61;101633.95;108188;1285;21986;-65
2023/02/06 10:15:51;;;;;;;11.70;7.20;;;;;;;8.41;48.60;101638.46;108154;1285;22017;-63
2023/02/06 10:18:28;;;;;;;15.30;8.50;;;;;;;8.40;48.82;101634.07;108097;1285;21992;-68
2023/02/06 10:21:09;;;;;;;14.60;8.30;;;;;;;8.26;47.31;101630.52;107372;1285;1002947;-66
2023/02/06 10:23:44;;;;;;;10.30;5.70;;;;;;;8.12;48.12;101628.70;108160;1275;21997;-67
2023/02/06 10:26:17;;;;;;;11.80;6.60;;;;;;;8.09;48.70;101629.16;108189;1285;21986;-64
2023/02/06 10:28:47;;;;;;;10.60;6.00;;;;;;;8.05;48.79;101632.41;108130;1277;22000;-67
2023/02/06 10:31:35;;;;;;;10.10;5.50;;;;;;;8.05;49.17;101634.17;108090;1285;22008;-63
2023/02/06 10:34:20;;;;;;;10.90;6.10;;;;;;;7.89;49.63;101637.03;108143;1284;21992;-68
2023/02/06 10:37:14;;;;;;;8.90;5.70;;;;;;;7.94;50.49;101633.26;108118;1285;21994;-63
2023/02/06 10:40:11;;;;;;;9.40;5.60;;;;;;;8.12;51.04;101630.79;107443;1285;1002858;-64
2023/02/06 10:43:34;;;;;;;11.10;6.20;;;;;;;8.31;50.52;101631.30;108278;1285;21984;-63
2023/02/06 10:46:06;;;;;;;13.40;7.10;;;;;;;8.49;49.86;101636.34;107796;1290;22002;-67
2023/02/06 10:49:23;;;;;;;10.90;6.30;;;;;;;8.58;48.51;101633.88;107746;1290;21998;-68
2023/02/06 10:51:54;;;;;;;11.10;6.20;;;;;;;8.40;47.76;101637.75;108077;1285;21989;-67
2023/02/06 10:54:39;;;;;;;12.60;7.50;;;;;;;8.26;47.56;101640.13;108124;1285;21983;-67
2023/02/06 10:57:11;;;;;;;11.50;7.30;;;;;;;8.18;47.90;101645.94;107377;1286;1002993;-68
2023/02/06 10:59:39;;;;;;;13.00;7.20;;;;;;;8.04;47.89;101649.70;108128;1286;21998;-64
2023/02/06 11:02:18;;;;;;;11.10;6.40;;;;;;;7.94;48.21;101654.23;108156;1286;22454;-67
2023/02/06 11:04:54;;;;;;;10.20;5.80;;;;;;;7.90;48.43;101652.95;108122;1286;22005;-67
2023/02/06 11:07:28;;;;;;;11.40;7.30;;;;;;;7.78;47.38;101652.02;108165;1285;21999;-68
2023/02/06 11:09:58;;;;;;;13.00;7.30;;;;;;;7.59;46.90;101655.66;108165;1284;24331;-62
2023/02/06 11:12:54;;;;;;;12.20;7.40;;;;;;;7.53;47.03;101656.39;107470;1285;1002498;-62
2023/02/06 11:15:24;;;;;;;10.40;6.00;;;;;;;7.56;48.04;101655.92;108110;1273;21987;-67
2023/02/06 11:17:53;;;;;;;10.30;6.40;;;;;;;7.63;47.75;101655.38;108163;1286;21993;-68
2023/02/06 11:20:26;;;;;;;13.10;6.90;;;;;;;7.69;47.88;101661.47;108102;1285;21990;-63
2023/02/06 11:22:52;;;;;;;14.70;7.70;;;;;;;7.72;47.90;101665.19;108145;1285;23052;-67